OPKC Airport Information

Runway Information
Runway 07L Length 10500 ft width 151 ft
Elevation 77 ft Threshold 0 ft Heading 75
Runway 25R Length 10500 ft Width 151 ft
Elevation 100 ft Threshold 0 ft Heading 255
Runway 07R Length 11155 ft width 151 ft
Elevation 71 ft Threshold 0 ft Heading 74
Runway 25L Length 11155 ft Width 151 ft
Elevation 89 ft Threshold 0 ft Heading 254
Airport Frequencies
Type APP Name KARACHI AP Frequency 125.5 MHZ
Type ATIS Name ATIS Frequency 126.7 MHZ
Type GND Name KARACHI GN Frequency 121.6 MHZ
Type TWR Name KARACHI TW Frequency 118.3 MHZ
Airport Navaids
Type VOR-DME Name Karachi Frequency 112100 KHZ
Type NDB Name Karachi Frequency 271 KHZ
Airport Weather Information & NOTAM
ADDS - METARS form results

(2007 UTC 28 January 2020)
Data provider http://aviationweather.gov/metar/data/
 
METAR text: OPKC 281955Z 25007KT 6000 NSC 17/04 Q1015 NOSIG
Conditions at: OPKC (KARACHI INTL ARP, PK) observed 1955 UTC 28 January 2020
Temperature: 17.0°C (63°F)
Dewpoint: 4.0°C (39°F) [RH = 42%]
Pressure (altimeter): 29.97 inches Hg (1015.0 mb)
Winds: from the WSW (250 degrees) at 8 MPH (7 knots; 3.6 m/s)
Visibility: 4 miles ( 6 km)
Ceiling: at least 12,000 feet AGL
Clouds: sky clear below 12,000 feet AGL
Weather: no significant weather observed at this time

METAR text: OPKC 281925Z 24006KT 6000 NSC 16/04 Q1015 NOSIG
Conditions at: OPKC (KARACHI INTL ARP, PK) observed 1925 UTC 28 January 2020
Temperature: 16.0°C (61°F)
Dewpoint: 4.0°C (39°F) [RH = 45%]
Pressure (altimeter): 29.97 inches Hg (1015.0 mb)
Winds: from the WSW (240 degrees) at 7 MPH (6 knots; 3.1 m/s)
Visibility: 4 miles ( 6 km)
Ceiling: at least 12,000 feet AGL
Clouds: sky clear below 12,000 feet AGL
Weather: no significant weather observed at this time

Forecast for: OPKC (KARACHI INTL ARP, PK)
Text: TAF OPKC 281830Z 2821/2906 33005G15KT 5000 HZ NSC
Forecast period: 2100 UTC 28 January 2020 to 0600 UTC 29 January 2020
Forecast type: FROM: standard forecast or significant change
Winds: from the NNW (330 degrees) at 6 MPH (5 knots; 2.6 m/s)
gusting to 17 MPH (15 knots; 7.7 m/s)
Visibility: 3 miles (5 km)
Ceiling: unknown
Clouds: missing
Weather: HZ  (haze)
Text: TEMPO 2900/2904 03008KT 4000 FU NSC
Forecast period: 0000 to 0400 UTC 29 January 2020
Forecast type: TEMPORARY: The following changes expected for less than half the time period
Winds: from the NNE (30 degrees) at 9 MPH (8 knots; 4.1 m/s)
Visibility: 2.49 miles (4.01 km)
Ceiling: unknown
Clouds: missing
Weather: FU  (smoke)